^^
Station Historical Data
Daily Summary for July 12, 2018 Units:  Both    English   Metric
« Previous Day
Next Day »
Daily Weekly Monthly Yearly Custom
  High: Low: Average:
Temperature: TemperatureF °F /  -17.8 °C 58.5 °F /  14.7 °C 70.4 °F /  21.3 °C
Dew Point: DewpointF °F /  -17.8 °C 52.2 °F /  11.2 °C 54.8 °F /  12.7 °C
Humidity: Humidity % 34 % 61 %
Wind Speed: WindSpeedMPH mph /  0 km/h - 0.1 mph /  0.2 km/h
Wind Gust: WindSpeedGustMPH mph /  0 km/h - -
Wind:- - SW
Pressure: PressureIn in /  0 hPa 30.07 in /  1018.2 hPa -
Precipitation: 0.00 in /  0 mm    
Historical Graphs
 
 
Tabular Data for July 12, 2018
Time Temperature Dew Point Pressure Wind Wind Speed Wind Gust Humidity Rainfall Rate (Hourly) solar Conditions
TemperatureF °F /  -17.8 °C DewpointF °F /  -17.8 °C PressureIn in /  0 hPa Calm     Humidity % HourlyPrecipIn in /  0 mm SoftwareType W/m2 Conditions
00:00 60.4 °F /  15.8 °C 53.5 °F /  11.9 °C 30.07 in /  1018.2 hPa Calm     78 % 0.00 in /  0 mm WeatherDisplay:10.37 W/m2 FEW
00:05 60.3 °F /  15.7 °C 53.8 °F /  12.1 °C 30.07 in /  1018.2 hPa Calm     79 % 0.00 in /  0 mm WeatherDisplay:10.37 W/m2 FEW
00:10 60.3 °F /  15.7 °C 53.8 °F /  12.1 °C 30.07 in /  1018.2 hPa Calm     79 % 0.00 in /  0 mm WeatherDisplay:10.37 W/m2 FEW
00:15 60.3 °F /  15.7 °C 53.8 °F /  12.1 °C 30.07 in /  1018.2 hPa Calm     79 % 0.00 in /  0 mm WeatherDisplay:10.37 W/m2 FEW
00:20 60.3 °F /  15.7 °C 53.8 °F /  12.1 °C 30.07 in /  1018.2 hPa Calm     79 % 0.00 in /  0 mm WeatherDisplay:10.37 W/m2 FEW
00:25 60.3 °F /  15.7 °C 53.8 °F /  12.1 °C 30.08 in /  1018.5 hPa Calm     79 % 0.00 in /  0 mm WeatherDisplay:10.37 W/m2 FEW
00:30 60.4 °F /  15.8 °C 53.9 °F /  12.2 °C 30.08 in /  1018.5 hPa Calm     79 % 0.00 in /  0 mm WeatherDisplay:10.37 W/m2 FEW
00:35 60.4 °F /  15.8 °C 53.9 °F /  12.2 °C 30.08 in /  1018.5 hPa Calm     79 % 0.00 in /  0 mm WeatherDisplay:10.37 W/m2 FEW
00:40 60.5 °F /  15.8 °C 54.0 °F /  12.2 °C 30.07 in /  1018.2 hPa Calm     79 % 0.00 in /  0 mm WeatherDisplay:10.37 W/m2 FEW
00:45 60.6 °F /  15.9 °C 54.0 °F /  12.2 °C 30.08 in /  1018.5 hPa Calm     79 % 0.00 in /  0 mm WeatherDisplay:10.37 W/m2 FEW
00:50 60.6 °F /  15.9 °C 54.0 °F /  12.2 °C 30.08 in /  1018.5 hPa Calm     79 % 0.00 in /  0 mm WeatherDisplay:10.37 W/m2 FEW
00:55 60.7 °F /  15.9 °C 54.1 °F /  12.3 °C 30.08 in /  1018.5 hPa Calm     79 % 0.00 in /  0 mm WeatherDisplay:10.37 W/m2 FEW
01:00 60.7 °F /  15.9 °C 54.1 °F /  12.3 °C 30.08 in /  1018.5 hPa Calm     79 % 0.00 in /  0 mm WeatherDisplay:10.37 W/m2 FEW
01:05 60.7 °F /  15.9 °C 54.1 °F /  12.3 °C 30.08 in /  1018.5 hPa Calm     79 % 0.00 in /  0 mm WeatherDisplay:10.37 W/m2 FEW
01:10 60.8 °F /  16 °C 54.2 °F /  12.3 °C 30.08 in /  1018.5 hPa Calm     79 % 0.00 in /  0 mm WeatherDisplay:10.37 W/m2 FEW
01:15 60.8 °F /  16 °C 54.3 °F /  12.4 °C 30.08 in /  1018.5 hPa Calm     79 % 0.00 in /  0 mm WeatherDisplay:10.37 W/m2 FEW
01:20 60.9 °F /  16.1 °C 54.3 °F /  12.4 °C 30.08 in /  1018.5 hPa Calm     79 % 0.00 in /  0 mm WeatherDisplay:10.37 W/m2 FEW
01:25 60.9 °F /  16.1 °C 54.7 °F /  12.6 °C 30.08 in /  1018.5 hPa Calm     80 % 0.00 in /  0 mm WeatherDisplay:10.37 W/m2 FEW
01:30 61.0 °F /  16.1 °C 54.8 °F /  12.7 °C 30.08 in /  1018.5 hPa Calm     80 % 0.00 in /  0 mm WeatherDisplay:10.37 W/m2 FEW
01:35 61.0 °F /  16.1 °C 54.8 °F /  12.7 °C 30.08 in /  1018.5 hPa Calm     80 % 0.00 in /  0 mm WeatherDisplay:10.37 W/m2 FEW
01:40 61.0 °F /  16.1 °C 54.8 °F /  12.7 °C 30.08 in /  1018.5 hPa Calm     80 % 0.00 in /  0 mm WeatherDisplay:10.37 W/m2 FEW
01:45 61.1 °F /  16.2 °C 54.9 °F /  12.7 °C 30.08 in /  1018.5 hPa Calm     80 % 0.00 in /  0 mm WeatherDisplay:10.37 W/m2 FEW
01:50 61.1 °F /  16.2 °C 54.9 °F /  12.7 °C 30.08 in /  1018.5 hPa Calm     80 % 0.00 in /  0 mm WeatherDisplay:10.37 W/m2 FEW
01:55 61.2 °F /  16.2 °C 54.9 °F /  12.7 °C 30.08 in /  1018.5 hPa Calm     80 % 0.00 in /  0 mm WeatherDisplay:10.37 W/m2 FEW
02:00 61.2 °F /  16.2 °C 55.0 °F /  12.8 °C 30.08 in /  1018.5 hPa Calm     80 % 0.00 in /  0 mm WeatherDisplay:10.37 W/m2 FEW
02:05 61.2 °F /  16.2 °C 55.0 °F /  12.8 °C 30.08 in /  1018.5 hPa Calm     80 % 0.00 in /  0 mm WeatherDisplay:10.37 W/m2 FEW
02:10 61.2 °F /  16.2 °C 55.0 °F /  12.8 °C 30.08 in /  1018.5 hPa Calm     80 % 0.00 in /  0 mm WeatherDisplay:10.37 W/m2 FEW
02:15 61.2 °F /  16.2 °C 55.0 °F /  12.8 °C 30.08 in /  1018.5 hPa Calm     80 % 0.00 in /  0 mm WeatherDisplay:10.37 W/m2 FEW
02:20 61.2 °F /  16.2 °C 55.0 °F /  12.8 °C 30.08 in /  1018.5 hPa Calm     80 % 0.00 in /  0 mm WeatherDisplay:10.37 W/m2 FEW
02:25 61.2 °F /  16.2 °C 54.6 °F /  12.6 °C 30.08 in /  1018.5 hPa Calm     79 % 0.00 in /  0 mm WeatherDisplay:10.37 W/m2 FEW
02:30 61.2 °F /  16.2 °C 54.6 °F /  12.6 °C 30.08 in /  1018.5 hPa Calm     79 % 0.00 in /  0 mm WeatherDisplay:10.37 W/m2 FEW
02:35 61.1 °F /  16.2 °C 54.5 °F /  12.5 °C 30.08 in /  1018.5 hPa Calm     79 % 0.00 in /  0 mm WeatherDisplay:10.37 W/m2 FEW
02:40 61.1 °F /  16.2 °C 54.5 °F /  12.5 °C 30.08 in /  1018.5 hPa Calm     79 % 0.00 in /  0 mm WeatherDisplay:10.37 W/m2 FEW
02:45 61.0 °F /  16.1 °C 54.1 °F /  12.3 °C 30.08 in /  1018.5 hPa Calm     78 % 0.00 in /  0 mm WeatherDisplay:10.37 W/m2 FEW
02:50 60.9 °F /  16.1 °C 54.0 °F /  12.2 °C 30.08 in /  1018.5 hPa Calm     78 % 0.00 in /  0 mm WeatherDisplay:10.37 W/m2 FEW
02:55 60.8 °F /  16 °C 53.9 °F /  12.2 °C 30.08 in /  1018.5 hPa Calm     78 % 0.00 in /  0 mm WeatherDisplay:10.37 W/m2 FEW
03:00 60.7 °F /  15.9 °C 53.8 °F /  12.1 °C 30.08 in /  1018.5 hPa Calm     78 % 0.00 in /  0 mm WeatherDisplay:10.37 W/m2 FEW
03:05 60.6 °F /  15.9 °C 53.7 °F /  12.1 °C 30.09 in /  1018.8 hPa Calm     78 % 0.00 in /  0 mm WeatherDisplay:10.37 W/m2 FEW
03:10 60.4 °F /  15.8 °C 53.5 °F /  11.9 °C 30.09 in /  1018.8 hPa Calm     78 % 0.00 in /  0 mm WeatherDisplay:10.37 W/m2 FEW
03:15 60.3 °F /  15.7 °C 53.8 °F /  12.1 °C 30.09 in /  1018.8 hPa Calm     79 % 0.00 in /  0 mm WeatherDisplay:10.37 W/m2 FEW
03:20 60.2 °F /  15.7 °C 53.7 °F /  12.1 °C 30.09 in /  1018.8 hPa Calm     79 % 0.00 in /  0 mm WeatherDisplay:10.37 W/m2 FEW
03:25 60.1 °F /  15.6 °C 53.6 °F /  12 °C 30.09 in /  1018.8 hPa Calm     79 % 0.00 in /  0 mm WeatherDisplay:10.37 W/m2 FEW
03:30 59.9 °F /  15.5 °C 53.4 °F /  11.9 °C 30.09 in /  1018.8 hPa Calm     79 % 0.00 in /  0 mm WeatherDisplay:10.37 W/m2 FEW
03:35 59.8 °F /  15.4 °C 53.2 °F /  11.8 °C 30.09 in /  1018.8 hPa Calm     79 % 0.00 in /  0 mm WeatherDisplay:10.37 W/m2 FEW
03:40 59.6 °F /  15.3 °C 53.1 °F /  11.7 °C 30.09 in /  1018.8 hPa Calm     79 % 0.00 in /  0 mm WeatherDisplay:10.37 W/m2 FEW
03:45 59.5 °F /  15.3 °C 53.0 °F /  11.7 °C 30.09 in /  1018.8 hPa Calm     79 % 0.00 in /  0 mm WeatherDisplay:10.37 W/m2 FEW
03:50 59.5 °F /  15.3 °C 53.0 °F /  11.7 °C 30.09 in /  1018.8 hPa Calm     79 % 0.00 in /  0 mm WeatherDisplay:10.37 W/m2 FEW
03:55 59.5 °F /  15.3 °C 53.3 °F /  11.8 °C 30.09 in /  1018.8 hPa Calm     80 % 0.00 in /  0 mm WeatherDisplay:10.37 W/m2 FEW
04:00 59.4 °F /  15.2 °C 53.3 °F /  11.8 °C 30.09 in /  1018.8 hPa Calm     80 % 0.00 in /  0 mm WeatherDisplay:10.37 W/m2 FEW
04:05 59.4 °F /  15.2 °C 53.2 °F /  11.8 °C 30.09 in /  1018.8 hPa Calm     80 % 0.00 in /  0 mm WeatherDisplay:10.37 W/m2 FEW
04:10 59.4 °F /  15.2 °C 53.2 °F /  11.8 °C 30.09 in /  1018.8 hPa Calm     80 % 0.00 in /  0 mm WeatherDisplay:10.37 W/m2 FEW
04:15 59.4 °F /  15.2 °C 53.2 °F /  11.8 °C 30.09 in /  1018.8 hPa Calm     80 % 0.00 in /  0 mm WeatherDisplay:10.37 W/m2 FEW
04:20 59.3 °F /  15.2 °C 53.1 °F /  11.7 °C 30.09 in /  1018.8 hPa Calm     80 % 0.00 in /  0 mm WeatherDisplay:10.37 W/m2 FEW
04:25 59.2 °F /  15.1 °C 53.0 °F /  11.7 °C 30.09 in /  1018.8 hPa Calm     80 % 0.00 in /  0 mm WeatherDisplay:10.37 W/m2 FEW
04:30 59.1 °F /  15.1 °C 52.9 °F /  11.6 °C 30.09 in /  1018.8 hPa Calm     80 % 0.00 in /  0 mm WeatherDisplay:10.37 W/m2 FEW
04:35 59.0 °F /  15 °C 52.8 °F /  11.6 °C 30.09 in /  1018.8 hPa Calm     80 % 0.00 in /  0 mm WeatherDisplay:10.37 W/m2 FEW
04:40 58.9 °F /  14.9 °C 52.7 °F /  11.5 °C 30.09 in /  1018.8 hPa Calm   2.0 mph /  3.2 km/h 80 % 0.00 in /  0 mm WeatherDisplay:10.37 W/m2 FEW
04:45 58.8 °F /  14.9 °C 52.6 °F /  11.4 °C 30.09 in /  1018.8 hPa Calm     80 % 0.00 in /  0 mm WeatherDisplay:10.37 W/m2 FEW
04:50 58.7 °F /  14.8 °C 52.9 °F /  11.6 °C 30.09 in /  1018.8 hPa Calm     81 % 0.00 in /  0 mm WeatherDisplay:10.37 W/m2 FEW
04:55 58.7 °F /  14.8 °C 52.9 °F /  11.6 °C 30.09 in /  1018.8 hPa Calm     81 % 0.00 in /  0 mm WeatherDisplay:10.37 W/m2 FEW
05:00 58.7 °F /  14.8 °C 52.8 °F /  11.6 °C 30.09 in /  1018.8 hPa Calm   1.0 mph /  1.6 km/h 81 % 0.00 in /  0 mm WeatherDisplay:10.37 W/m2 FEW
05:05 58.6 °F /  14.8 °C 52.8 °F /  11.6 °C 30.10 in /  1019.2 hPa Calm     81 % 0.00 in /  0 mm WeatherDisplay:10.37 W/m2 FEW
05:10 58.6 °F /  14.8 °C 52.8 °F /  11.6 °C 30.10 in /  1019.2 hPa Calm     81 % 0.00 in /  0 mm WeatherDisplay:10.37 W/m2 FEW
05:15 58.6 °F /  14.8 °C 52.4 °F /  11.3 °C 30.10 in /  1019.2 hPa Calm     80 % 0.00 in /  0 mm WeatherDisplay:10.37 W/m2 FEW
05:20 58.6 °F /  14.8 °C 52.4 °F /  11.3 °C 30.10 in /  1019.2 hPa Calm     80 % 0.00 in /  0 mm WeatherDisplay:10.37 W/m2 FEW
05:25 58.6 °F /  14.8 °C 52.4 °F /  11.3 °C 30.10 in /  1019.2 hPa Calm     80 % 0.00 in /  0 mm WeatherDisplay:10.37 W/m2 FEW
05:30 58.5 °F /  14.7 °C 52.4 °F /  11.3 °C 30.10 in /  1019.2 hPa Calm     80 % 0.00 in /  0 mm WeatherDisplay:10.37 W/m2 FEW
05:35 58.6 °F /  14.8 °C 52.4 °F /  11.3 °C 30.10 in /  1019.2 hPa Calm   1.0 mph /  1.6 km/h 80 % 0.00 in /  0 mm WeatherDisplay:10.37 W/m2 FEW
05:40 58.6 °F /  14.8 °C 52.4 °F /  11.3 °C 30.10 in /  1019.2 hPa Calm     80 % 0.00 in /  0 mm WeatherDisplay:10.37 W/m2 FEW
05:45 58.6 °F /  14.8 °C 52.4 °F /  11.3 °C 30.10 in /  1019.2 hPa Calm   2.0 mph /  3.2 km/h 80 % 0.00 in /  0 mm WeatherDisplay:10.37 W/m2 FEW
05:50 58.7 °F /  14.8 °C 52.2 °F /  11.2 °C 30.11 in /  1019.5 hPa Calm   2.0 mph /  3.2 km/h 79 % 0.00 in /  0 mm WeatherDisplay:10.37 W/m2 FEW
05:55 58.8 °F /  14.9 °C 52.3 °F /  11.3 °C 30.11 in /  1019.5 hPa Calm   1.0 mph /  1.6 km/h 79 % 0.00 in /  0 mm WeatherDisplay:10.37 W/m2 FEW
06:00 58.8 °F /  14.9 °C 52.3 °F /  11.3 °C 30.11 in /  1019.5 hPa Calm     79 % 0.00 in /  0 mm WeatherDisplay:10.37 W/m2 FEW
06:05 58.9 °F /  14.9 °C 52.4 °F /  11.3 °C 30.11 in /  1019.5 hPa Calm   1.0 mph /  1.6 km/h 79 % 0.00 in /  0 mm WeatherDisplay:10.37 W/m2 FEW
06:10 58.9 °F /  14.9 °C 52.4 °F /  11.3 °C 30.11 in /  1019.5 hPa Calm     79 % 0.00 in /  0 mm WeatherDisplay:10.37 W/m2 FEW
06:15 59.0 °F /  15 °C 52.5 °F /  11.4 °C 30.11 in /  1019.5 hPa Calm   1.0 mph /  1.6 km/h 79 % 0.00 in /  0 mm WeatherDisplay:10.37 W/m2 FEW
06:20 59.1 °F /  15.1 °C 52.6 °F /  11.4 °C 30.11 in /  1019.5 hPa Calm   2.0 mph /  3.2 km/h 79 % 0.00 in /  0 mm WeatherDisplay:10.37 W/m2 FEW
06:25 59.1 °F /  15.1 °C 52.6 °F /  11.4 °C 30.11 in /  1019.5 hPa Calm   1.0 mph /  1.6 km/h 79 % 0.00 in /  0 mm WeatherDisplay:10.37 W/m2 FEW
06:30 59.2 °F /  15.1 °C 52.7 °F /  11.5 °C 30.12 in /  1019.9 hPa Calm   2.0 mph /  3.2 km/h 79 % 0.00 in /  0 mm WeatherDisplay:10.37 W/m2 FEW
06:35 59.2 °F /  15.1 °C 52.7 °F /  11.5 °C 30.12 in /  1019.9 hPa Calm     79 % 0.00 in /  0 mm WeatherDisplay:10.37 W/m2 FEW
06:40 59.3 °F /  15.2 °C 52.8 °F /  11.6 °C 30.12 in /  1019.9 hPa Calm   2.0 mph /  3.2 km/h 79 % 0.00 in /  0 mm WeatherDisplay:10.37 W/m2 FEW
06:45 59.4 °F /  15.2 °C 52.9 °F /  11.6 °C 30.12 in /  1019.9 hPa Calm   2.0 mph /  3.2 km/h 79 % 0.00 in /  0 mm WeatherDisplay:10.37 W/m2 FEW
06:50 59.4 °F /  15.2 °C 52.6 °F /  11.4 °C 30.12 in /  1019.9 hPa Calm   1.0 mph /  1.6 km/h 78 % 0.00 in /  0 mm WeatherDisplay:10.37 W/m2 FEW
06:55 59.5 °F /  15.3 °C 52.6 °F /  11.4 °C 30.13 in /  1020.2 hPa Calm     78 % 0.00 in /  0 mm WeatherDisplay:10.37 W/m2 FEW
07:00 59.6 °F /  15.3 °C 52.7 °F /  11.5 °C 30.13 in /  1020.2 hPa Calm     78 % 0.00 in /  0 mm WeatherDisplay:10.37 W/m2 FEW
07:05 59.7 °F /  15.4 °C 52.8 °F /  11.6 °C 30.13 in /  1020.2 hPa Calm     78 % 0.00 in /  0 mm WeatherDisplay:10.37 W/m2 FEW
07:10 59.9 °F /  15.5 °C 53.0 °F /  11.7 °C 30.13 in /  1020.2 hPa Calm     78 % 0.00 in /  0 mm WeatherDisplay:10.37 W/m2 FEW
07:15 60.0 °F /  15.6 °C 53.1 °F /  11.7 °C 30.13 in /  1020.2 hPa Calm     78 % 0.00 in /  0 mm WeatherDisplay:10.37 W/m2 FEW
07:20 60.1 °F /  15.6 °C 52.9 °F /  11.6 °C 30.13 in /  1020.2 hPa Calm     77 % 0.00 in /  0 mm WeatherDisplay:10.37 W/m2 FEW
07:25 60.3 °F /  15.7 °C 53.0 °F /  11.7 °C 30.14 in /  1020.5 hPa Calm     77 % 0.00 in /  0 mm WeatherDisplay:10.37 W/m2 FEW
07:30 60.4 °F /  15.8 °C 53.2 °F /  11.8 °C 30.13 in /  1020.2 hPa Calm     77 % 0.00 in /  0 mm WeatherDisplay:10.37 W/m2 FEW
07:35 60.7 °F /  15.9 °C 53.1 °F /  11.7 °C 30.13 in /  1020.2 hPa Calm     76 % 0.00 in /  0 mm WeatherDisplay:10.37 W/m2 FEW
07:40 60.9 °F /  16.1 °C 52.9 °F /  11.6 °C 30.14 in /  1020.5 hPa Calm     75 % 0.00 in /  0 mm WeatherDisplay:10.37 W/m2 FEW
07:45 61.2 °F /  16.2 °C 53.2 °F /  11.8 °C 30.13 in /  1020.2 hPa Calm   1.0 mph /  1.6 km/h 75 % 0.00 in /  0 mm WeatherDisplay:10.37 W/m2 FEW
07:50 61.6 °F /  16.4 °C 53.2 °F /  11.8 °C 30.14 in /  1020.5 hPa Calm     74 % 0.00 in /  0 mm WeatherDisplay:10.37 W/m2 FEW
07:55 61.9 °F /  16.6 °C 53.6 °F /  12 °C 30.14 in /  1020.5 hPa Calm     74 % 0.00 in /  0 mm WeatherDisplay:10.37 W/m2 FEW
08:00 62.4 °F /  16.9 °C 54.4 °F /  12.4 °C 30.14 in /  1020.5 hPa Calm   1.0 mph /  1.6 km/h 75 % 0.00 in /  0 mm WeatherDisplay:10.37 W/m2 FEW
08:05 62.9 °F /  17.2 °C 54.5 °F /  12.5 °C 30.14 in /  1020.5 hPa Calm   1.0 mph /  1.6 km/h 74 % 0.00 in /  0 mm WeatherDisplay:10.37 W/m2 FEW
08:10 63.3 °F /  17.4 °C 54.1 °F /  12.3 °C 30.14 in /  1020.5 hPa Calm   2.0 mph /  3.2 km/h 72 % 0.00 in /  0 mm WeatherDisplay:10.37 W/m2 FEW
08:15 63.6 °F /  17.6 °C 54.1 °F /  12.3 °C 30.14 in /  1020.5 hPa Calm   1.0 mph /  1.6 km/h 71 % 0.00 in /  0 mm WeatherDisplay:10.37 W/m2 FEW
08:20 64.1 °F /  17.8 °C 54.5 °F /  12.5 °C 30.14 in /  1020.5 hPa Calm   1.0 mph /  1.6 km/h 71 % 0.00 in /  0 mm WeatherDisplay:10.37 W/m2 FEW
08:25 64.4 °F /  18 °C 54.4 °F /  12.4 °C 30.14 in /  1020.5 hPa Calm     70 % 0.00 in /  0 mm WeatherDisplay:10.37 W/m2 FEW
08:30 64.7 °F /  18.2 °C 54.3 °F /  12.4 °C 30.14 in /  1020.5 hPa Calm   1.0 mph /  1.6 km/h 69 % 0.00 in /  0 mm WeatherDisplay:10.37 W/m2 FEW
08:35 64.9 °F /  18.3 °C 54.5 °F /  12.5 °C 30.14 in /  1020.5 hPa Calm   1.0 mph /  1.6 km/h 69 % 0.00 in /  0 mm WeatherDisplay:10.37 W/m2 FEW
08:40 65.3 °F /  18.5 °C 55.3 °F /  12.9 °C 30.14 in /  1020.5 hPa Calm     70 % 0.00 in /  0 mm WeatherDisplay:10.37 W/m2 FEW
08:45 65.5 °F /  18.6 °C 54.7 °F /  12.6 °C 30.15 in /  1020.9 hPa Calm   1.0 mph /  1.6 km/h 68 % 0.00 in /  0 mm WeatherDisplay:10.37 W/m2 FEW
08:50 65.8 °F /  18.8 °C 55.0 °F /  12.8 °C 30.15 in /  1020.9 hPa Calm     68 % 0.00 in /  0 mm WeatherDisplay:10.37 W/m2 FEW
08:55 66.1 °F /  18.9 °C 54.8 °F /  12.7 °C 30.15 in /  1020.9 hPa Calm   2.0 mph /  3.2 km/h 67 % 0.00 in /  0 mm WeatherDisplay:10.37 W/m2 FEW
09:00 66.5 °F /  19.2 °C 54.8 °F /  12.7 °C 30.15 in /  1020.9 hPa Calm   2.0 mph /  3.2 km/h 66 % 0.00 in /  0 mm WeatherDisplay:10.37 W/m2 FEW
09:05 66.7 °F /  19.3 °C 55.0 °F /  12.8 °C 30.16 in /  1021.2 hPa Calm   2.0 mph /  3.2 km/h 66 % 0.00 in /  0 mm WeatherDisplay:10.37 W/m2 FEW
09:10 66.9 °F /  19.4 °C 55.1 °F /  12.8 °C 30.16 in /  1021.2 hPa Calm   5.0 mph /  8 km/h 66 % 0.00 in /  0 mm WeatherDisplay:10.37 W/m2 FEW
09:15 67.1 °F /  19.5 °C 55.4 °F /  13 °C 30.16 in /  1021.2 hPa Calm     66 % 0.00 in /  0 mm WeatherDisplay:10.37 W/m2 FEW
09:20 67.3 °F /  19.6 °C 55.1 °F /  12.8 °C 30.16 in /  1021.2 hPa Calm     65 % 0.00 in /  0 mm WeatherDisplay:10.37 W/m2 FEW
09:25 67.5 °F /  19.7 °C 55.3 °F /  12.9 °C 30.15 in /  1020.9 hPa Calm     65 % 0.00 in /  0 mm WeatherDisplay:10.37 W/m2 FEW
09:30 67.7 °F /  19.8 °C 55.5 °F /  13.1 °C 30.16 in /  1021.2 hPa Calm     65 % 0.00 in /  0 mm WeatherDisplay:10.37 W/m2 FEW
09:35 68.0 °F /  20 °C 55.8 °F /  13.2 °C 30.16 in /  1021.2 hPa Calm   5.0 mph /  8 km/h 65 % 0.00 in /  0 mm WeatherDisplay:10.37 W/m2 FEW
09:40 68.3 °F /  20.2 °C 55.2 °F /  12.9 °C 30.16 in /  1021.2 hPa Calm   2.0 mph /  3.2 km/h 63 % 0.00 in /  0 mm WeatherDisplay:10.37 W/m2 FEW
09:45 68.7 °F /  20.4 °C 55.6 °F /  13.1 °C 30.16 in /  1021.2 hPa NNW 1.0 mph /  1.6 km/h 4.0 mph /  6.4 km/h 63 % 0.00 in /  0 mm WeatherDisplay:10.37 W/m2 FEW
09:50 69.0 °F /  20.6 °C 55.5 °F /  13.1 °C 30.16 in /  1021.2 hPa Calm   5.0 mph /  8 km/h 62 % 0.00 in /  0 mm WeatherDisplay:10.37 W/m2 FEW
09:55 69.5 °F /  20.8 °C 55.9 °F /  13.3 °C 30.16 in /  1021.2 hPa Calm     62 % 0.00 in /  0 mm WeatherDisplay:10.37 W/m2 FEW
10:00 70.0 °F /  21.1 °C 56.0 °F /  13.3 °C 30.16 in /  1021.2 hPa Calm   2.0 mph /  3.2 km/h 61 % 0.00 in /  0 mm WeatherDisplay:10.37 W/m2 FEW
10:05 70.4 °F /  21.3 °C 55.9 °F /  13.3 °C 30.16 in /  1021.2 hPa Calm   2.0 mph /  3.2 km/h 60 % 0.00 in /  0 mm WeatherDisplay:10.37 W/m2 FEW
10:10 70.9 °F /  21.6 °C 56.3 °F /  13.5 °C 30.16 in /  1021.2 hPa Calm   3.0 mph /  4.8 km/h 60 % 0.00 in /  0 mm WeatherDisplay:10.37 W/m2 FEW
10:15 71.3 °F /  21.8 °C 55.3 °F /  12.9 °C 30.16 in /  1021.2 hPa Calm   3.0 mph /  4.8 km/h 57 % 0.00 in /  0 mm WeatherDisplay:10.37 W/m2 FEW
10:20 71.8 °F /  22.1 °C 56.7 °F /  13.7 °C 30.16 in /  1021.2 hPa Calm   4.0 mph /  6.4 km/h 59 % 0.00 in /  0 mm WeatherDisplay:10.37 W/m2 FEW
10:25 72.3 °F /  22.4 °C 56.7 °F /  13.7 °C 30.16 in /  1021.2 hPa North 1.0 mph /  1.6 km/h 5.0 mph /  8 km/h 58 % 0.00 in /  0 mm WeatherDisplay:10.37 W/m2 FEW
10:30 72.6 °F /  22.6 °C 56.0 °F /  13.3 °C 30.16 in /  1021.2 hPa Calm   5.0 mph /  8 km/h 56 % 0.00 in /  0 mm WeatherDisplay:10.37 W/m2 FEW
10:35 73.0 °F /  22.8 °C 56.4 °F /  13.6 °C 30.16 in /  1021.2 hPa Calm   1.0 mph /  1.6 km/h 56 % 0.00 in /  0 mm WeatherDisplay:10.37 W/m2 FEW
10:40 73.4 °F /  23 °C 55.8 °F /  13.2 °C 30.16 in /  1021.2 hPa Calm   2.0 mph /  3.2 km/h 54 % 0.00 in /  0 mm WeatherDisplay:10.37 W/m2 FEW
10:45 73.8 °F /  23.2 °C 55.6 °F /  13.1 °C 30.17 in /  1021.6 hPa North 1.0 mph /  1.6 km/h 5.0 mph /  8 km/h 53 % 0.00 in /  0 mm WeatherDisplay:10.37 W/m2 FEW
10:50 74.1 °F /  23.4 °C 55.9 °F /  13.3 °C 30.17 in /  1021.6 hPa Calm   1.0 mph /  1.6 km/h 53 % 0.00 in /  0 mm WeatherDisplay:10.37 W/m2 FEW
10:55 74.5 °F /  23.6 °C 56.7 °F /  13.7 °C 30.17 in /  1021.6 hPa Calm   3.0 mph /  4.8 km/h 54 % 0.00 in /  0 mm WeatherDisplay:10.37 W/m2 FEW
11:00 74.8 °F /  23.8 °C 56.0 °F /  13.3 °C 30.17 in /  1021.6 hPa Calm   4.0 mph /  6.4 km/h 52 % 0.00 in /  0 mm WeatherDisplay:10.37 W/m2 FEW
11:05 75.1 °F /  23.9 °C 57.3 °F /  14.1 °C 30.16 in /  1021.2 hPa Calm     54 % 0.00 in /  0 mm WeatherDisplay:10.37 W/m2 FEW
11:10 75.4 °F /  24.1 °C 55.5 °F /  13.1 °C 30.17 in /  1021.6 hPa Calm   2.0 mph /  3.2 km/h 50 % 0.00 in /  0 mm WeatherDisplay:10.37 W/m2 FEW
11:15 75.8 °F /  24.3 °C 57.4 °F /  14.1 °C 30.17 in /  1021.6 hPa Calm   2.0 mph /  3.2 km/h 53 % 0.00 in /  0 mm WeatherDisplay:10.37 W/m2 FEW
11:20 76.2 °F /  24.6 °C 55.6 °F /  13.1 °C 30.17 in /  1021.6 hPa Calm   2.0 mph /  3.2 km/h 49 % 0.00 in /  0 mm WeatherDisplay:10.37 W/m2 FEW
11:25 76.4 °F /  24.7 °C 56.4 °F /  13.6 °C 30.17 in /  1021.6 hPa Calm     50 % 0.00 in /  0 mm WeatherDisplay:10.37 W/m2 FEW
11:30 76.7 °F /  24.8 °C 56.1 °F /  13.4 °C 30.17 in /  1021.6 hPa Calm   3.0 mph /  4.8 km/h 49 % 0.00 in /  0 mm WeatherDisplay:10.37 W/m2 FEW
11:35 76.9 °F /  24.9 °C 55.7 °F /  13.2 °C 30.17 in /  1021.6 hPa Calm   6.0 mph /  9.7 km/h 48 % 0.00 in /  0 mm WeatherDisplay:10.37 W/m2 FEW
11:40 77.3 °F /  25.2 °C 56.7 °F /  13.7 °C 30.17 in /  1021.6 hPa Calm   2.0 mph /  3.2 km/h 49 % 0.00 in /  0 mm WeatherDisplay:10.37 W/m2 FEW
11:45 77.7 °F /  25.4 °C 55.9 °F /  13.3 °C 30.17 in /  1021.6 hPa Calm   1.0 mph /  1.6 km/h 47 % 0.00 in /  0 mm WeatherDisplay:10.37 W/m2 FEW
11:50 77.9 °F /  25.5 °C 55.5 °F /  13.1 °C 30.17 in /  1021.6 hPa NNE 1.0 mph /  1.6 km/h 7.0 mph /  11.3 km/h 46 % 0.00 in /  0 mm WeatherDisplay:10.37 W/m2 FEW
11:55 78.1 °F /  25.6 °C 56.8 °F /  13.8 °C 30.17 in /  1021.6 hPa Calm   3.0 mph /  4.8 km/h 48 % 0.00 in /  0 mm WeatherDisplay:10.37 W/m2 FEW
12:00 78.3 °F /  25.7 °C 55.8 °F /  13.2 °C 30.17 in /  1021.6 hPa Calm     46 % 0.00 in /  0 mm WeatherDisplay:10.37 W/m2 FEW
12:05 78.6 °F /  25.9 °C 55.5 °F /  13.1 °C 30.17 in /  1021.6 hPa Calm   6.0 mph /  9.7 km/h 45 % 0.00 in /  0 mm WeatherDisplay:10.37 W/m2 FEW
12:10 78.7 °F /  25.9 °C 54.3 °F /  12.4 °C 30.16 in /  1021.2 hPa Calm   4.0 mph /  6.4 km/h 43 % 0.00 in /  0 mm WeatherDisplay:10.37 W/m2 FEW
12:15 78.8 °F /  26 °C 54.4 °F /  12.4 °C 30.16 in /  1021.2 hPa Calm   2.0 mph /  3.2 km/h 43 % 0.00 in /  0 mm WeatherDisplay:10.37 W/m2 FEW
12:20 78.9 °F /  26.1 °C 55.1 °F /  12.8 °C 30.16 in /  1021.2 hPa Calm     44 % 0.00 in /  0 mm WeatherDisplay:10.37 W/m2 FEW
12:25 79.1 °F /  26.2 °C 54.7 °F /  12.6 °C 30.16 in /  1021.2 hPa Calm   6.0 mph /  9.7 km/h 43 % 0.00 in /  0 mm WeatherDisplay:10.37 W/m2 FEW
12:30 79.2 °F /  26.2 °C 53.5 °F /  11.9 °C 30.16 in /  1021.2 hPa North 2.0 mph /  3.2 km/h 6.0 mph /  9.7 km/h 41 % 0.00 in /  0 mm WeatherDisplay:10.37 W/m2 FEW
12:35 79.2 °F /  26.2 °C 54.1 °F /  12.3 °C 30.16 in /  1021.2 hPa Calm   3.0 mph /  4.8 km/h 42 % 0.00 in /  0 mm WeatherDisplay:10.37 W/m2 FEW
12:40 79.2 °F /  26.2 °C 54.8 °F /  12.7 °C 30.15 in /  1020.9 hPa NNW 2.0 mph /  3.2 km/h 5.0 mph /  8 km/h 43 % 0.00 in /  0 mm WeatherDisplay:10.37 W/m2 FEW
12:45 79.2 °F /  26.2 °C 54.8 °F /  12.7 °C 30.16 in /  1021.2 hPa Calm   4.0 mph /  6.4 km/h 43 % 0.00 in /  0 mm WeatherDisplay:10.37 W/m2 FEW
12:50 79.5 °F /  26.4 °C 55.0 °F /  12.8 °C 30.16 in /  1021.2 hPa Calm   2.0 mph /  3.2 km/h 43 % 0.00 in /  0 mm WeatherDisplay:10.37 W/m2 FEW
12:55 79.7 °F /  26.5 °C 55.2 °F /  12.9 °C 30.16 in /  1021.2 hPa North 1.0 mph /  1.6 km/h 5.0 mph /  8 km/h 43 % 0.00 in /  0 mm WeatherDisplay:10.37 W/m2 FEW
13:00 79.9 °F /  26.6 °C 54.7 °F /  12.6 °C 30.16 in /  1021.2 hPa Calm   7.0 mph /  11.3 km/h 42 % 0.00 in /  0 mm WeatherDisplay:10.37 W/m2 FEW
13:05 79.9 °F /  26.6 °C 54.1 °F /  12.3 °C 30.16 in /  1021.2 hPa Calm   5.0 mph /  8 km/h 41 % 0.00 in /  0 mm WeatherDisplay:10.37 W/m2 FEW
13:10 80.0 °F /  26.7 °C 54.8 °F /  12.7 °C 30.16 in /  1021.2 hPa Calm   3.0 mph /  4.8 km/h 42 % 0.00 in /  0 mm WeatherDisplay:10.37 W/m2 FEW
13:15 80.1 °F /  26.7 °C 53.6 °F /  12 °C 30.16 in /  1021.2 hPa Calm   5.0 mph /  8 km/h 40 % 0.00 in /  0 mm WeatherDisplay:10.37 W/m2 FEW
13:20 80.2 °F /  26.8 °C 53.7 °F /  12.1 °C 30.16 in /  1021.2 hPa Calm   1.0 mph /  1.6 km/h 40 % 0.00 in /  0 mm WeatherDisplay:10.37 W/m2 FEW
13:25 80.3 °F /  26.8 °C 54.5 °F /  12.5 °C 30.16 in /  1021.2 hPa Calm     41 % 0.00 in /  0 mm WeatherDisplay:10.37 W/m2 FEW
13:30 80.5 °F /  26.9 °C 55.3 °F /  12.9 °C 30.16 in /  1021.2 hPa Calm   1.0 mph /  1.6 km/h 42 % 0.00 in /  0 mm WeatherDisplay:10.37 W/m2 FEW
13:35 80.6 °F /  27 °C 54.0 °F /  12.2 °C 30.15 in /  1020.9 hPa Calm   1.0 mph /  1.6 km/h 40 % 0.00 in /  0 mm WeatherDisplay:10.37 W/m2 FEW
13:40 80.8 °F /  27.1 °C 54.9 °F /  12.7 °C 30.15 in /  1020.9 hPa Calm   1.0 mph /  1.6 km/h 41 % 0.00 in /  0 mm WeatherDisplay:10.37 W/m2 FEW
13:45 80.8 °F /  27.1 °C 52.8 °F /  11.6 °C 30.15 in /  1020.9 hPa North 2.0 mph /  3.2 km/h 6.0 mph /  9.7 km/h 38 % 0.00 in /  0 mm WeatherDisplay:10.37 W/m2 FEW
13:50 80.8 °F /  27.1 °C 54.9 °F /  12.7 °C 30.15 in /  1020.9 hPa Calm   1.0 mph /  1.6 km/h 41 % 0.00 in /  0 mm WeatherDisplay:10.37 W/m2 FEW
13:55 81.1 °F /  27.3 °C 53.8 °F /  12.1 °C 30.15 in /  1020.9 hPa Calm   2.0 mph /  3.2 km/h 39 % 0.00 in /  0 mm WeatherDisplay:10.37 W/m2 FEW
14:00 81.3 °F /  27.4 °C 54.7 °F /  12.6 °C 30.15 in /  1020.9 hPa Calm   1.0 mph /  1.6 km/h 40 % 0.00 in /  0 mm WeatherDisplay:10.37 W/m2 FEW
14:05 81.5 °F /  27.5 °C 54.8 °F /  12.7 °C 30.15 in /  1020.9 hPa Calm   1.0 mph /  1.6 km/h 40 % 0.00 in /  0 mm WeatherDisplay:10.37 W/m2 FEW
14:10 81.8 °F /  27.7 °C 55.1 °F /  12.8 °C 30.15 in /  1020.9 hPa Calm   3.0 mph /  4.8 km/h 40 % 0.00 in /  0 mm WeatherDisplay:10.37 W/m2 FEW
14:15 82.0 °F /  27.8 °C 54.6 °F /  12.6 °C 30.15 in /  1020.9 hPa Calm   2.0 mph /  3.2 km/h 39 % 0.00 in /  0 mm WeatherDisplay:10.37 W/m2 FEW
14:20 82.2 °F /  27.9 °C 53.3 °F /  11.8 °C 30.15 in /  1020.9 hPa NE 1.0 mph /  1.6 km/h 6.0 mph /  9.7 km/h 37 % 0.00 in /  0 mm WeatherDisplay:10.37 W/m2 FEW
14:25 82.4 °F /  28 °C 53.5 °F /  11.9 °C 30.15 in /  1020.9 hPa Calm   3.0 mph /  4.8 km/h 37 % 0.00 in /  0 mm WeatherDisplay:10.37 W/m2 FEW
14:30 82.6 °F /  28.1 °C 53.7 °F /  12.1 °C 30.14 in /  1020.5 hPa Calm   3.0 mph /  4.8 km/h 37 % 0.00 in /  0 mm WeatherDisplay:10.37 W/m2 FEW
14:35 82.7 °F /  28.2 °C 53.7 °F /  12.1 °C 30.14 in /  1020.5 hPa Calm   3.0 mph /  4.8 km/h 37 % 0.00 in /  0 mm WeatherDisplay:10.37 W/m2 FEW
14:40 82.8 °F /  28.2 °C 53.1 °F /  11.7 °C 30.14 in /  1020.5 hPa NNW 3.0 mph /  4.8 km/h 6.0 mph /  9.7 km/h 36 % 0.00 in /  0 mm WeatherDisplay:10.37 W/m2 FEW
14:45 83.0 °F /  28.3 °C 55.5 °F /  13.1 °C 30.14 in /  1020.5 hPa Calm   4.0 mph /  6.4 km/h 39 % 0.00 in /  0 mm WeatherDisplay:10.37 W/m2 FEW
14:50 83.4 °F /  28.6 °C 55.1 °F /  12.8 °C 30.14 in /  1020.5 hPa Calm   1.0 mph /  1.6 km/h 38 % 0.00 in /  0 mm WeatherDisplay:10.37 W/m2 FEW
14:55 83.6 °F /  28.7 °C 54.6 °F /  12.6 °C 30.14 in /  1020.5 hPa Calm   2.0 mph /  3.2 km/h 37 % 0.00 in /  0 mm WeatherDisplay:10.37 W/m2 FEW
15:00 83.8 °F /  28.8 °C 55.5 °F /  13.1 °C 30.13 in /  1020.2 hPa Calm   2.0 mph /  3.2 km/h 38 % 0.00 in /  0 mm WeatherDisplay:10.37 W/m2 FEW
15:05 84.0 °F /  28.9 °C 56.4 °F /  13.6 °C 30.13 in /  1020.2 hPa Calm   2.0 mph /  3.2 km/h 39 % 0.00 in /  0 mm WeatherDisplay:10.37 W/m2 FEW
15:10 84.1 °F /  28.9 °C 55.0 °F /  12.8 °C 30.13 in /  1020.2 hPa Calm   2.0 mph /  3.2 km/h 37 % 0.00 in /  0 mm WeatherDisplay:10.37 W/m2 FEW
15:15 84.1 °F /  28.9 °C 55.1 °F /  12.8 °C 30.13 in /  1020.2 hPa Calm   1.0 mph /  1.6 km/h 37 % 0.00 in /  0 mm WeatherDisplay:10.37 W/m2 FEW
15:20 84.2 °F /  29 °C 55.8 °F /  13.2 °C 30.13 in /  1020.2 hPa Calm     38 % 0.00 in /  0 mm WeatherDisplay:10.37 W/m2 FEW
15:25 84.1 °F /  28.9 °C 55.0 °F /  12.8 °C 30.13 in /  1020.2 hPa Calm     37 % 0.00 in /  0 mm WeatherDisplay:10.37 W/m2 FEW
15:30 84.1 °F /  28.9 °C 54.3 °F /  12.4 °C 30.13 in /  1020.2 hPa Calm   1.0 mph /  1.6 km/h 36 % 0.00 in /  0 mm WeatherDisplay:10.37 W/m2 FEW
15:35 84.0 °F /  28.9 °C 54.9 °F /  12.7 °C 30.13 in /  1020.2 hPa Calm     37 % 0.00 in /  0 mm WeatherDisplay:10.37 W/m2 FEW
15:40 83.8 °F /  28.8 °C 54.0 °F /  12.2 °C 30.13 in /  1020.2 hPa Calm   1.0 mph /  1.6 km/h 36 % 0.00 in /  0 mm WeatherDisplay:10.37 W/m2 FEW
15:45 83.8 °F /  28.8 °C 56.2 °F /  13.4 °C 30.13 in /  1020.2 hPa Calm     39 % 0.00 in /  0 mm WeatherDisplay:10.37 W/m2 FEW
15:50 83.8 °F /  28.8 °C 54.7 °F /  12.6 °C 30.13 in /  1020.2 hPa Calm   2.0 mph /  3.2 km/h 37 % 0.00 in /  0 mm WeatherDisplay:10.37 W/m2 FEW
15:55 83.8 °F /  28.8 °C 54.0 °F /  12.2 °C 30.12 in /  1019.9 hPa Calm   1.0 mph /  1.6 km/h 36 % 0.00 in /  0 mm WeatherDisplay:10.37 W/m2 FEW
16:00 83.8 °F /  28.8 °C 54.7 °F /  12.6 °C 30.12 in /  1019.9 hPa Calm     37 % 0.00 in /  0 mm WeatherDisplay:10.37 W/m2 FEW
16:05 83.8 °F /  28.8 °C 53.2 °F /  11.8 °C 30.12 in /  1019.9 hPa Calm   2.0 mph /  3.2 km/h 35 % 0.00 in /  0 mm WeatherDisplay:10.37 W/m2 FEW
16:10 83.8 °F /  28.8 °C 53.2 °F /  11.8 °C 30.12 in /  1019.9 hPa Calm   2.0 mph /  3.2 km/h 35 % 0.00 in /  0 mm WeatherDisplay:10.37 W/m2 FEW
16:15 83.7 °F /  28.7 °C 53.9 °F /  12.2 °C 30.12 in /  1019.9 hPa Calm   1.0 mph /  1.6 km/h 36 % 0.00 in /  0 mm WeatherDisplay:10.37 W/m2 FEW
16:20 83.7 °F /  28.7 °C 53.1 °F /  11.7 °C 30.12 in /  1019.9 hPa Calm     35 % 0.00 in /  0 mm WeatherDisplay:10.37 W/m2 FEW
16:25 83.8 °F /  28.8 °C 53.2 °F /  11.8 °C 30.12 in /  1019.9 hPa Calm     35 % 0.00 in /  0 mm WeatherDisplay:10.37 W/m2 FEW
16:35 83.8 °F /  28.8 °C 55.5 °F /  13.1 °C 30.12 in /  1019.9 hPa Calm     38 % 0.00 in /  0 mm WeatherDisplay:10.37 W/m2 FEW
16:45 83.7 °F /  28.7 °C 54.7 °F /  12.6 °C 30.12 in /  1019.9 hPa Calm   1.0 mph /  1.6 km/h 37 % 0.00 in /  0 mm WeatherDisplay:10.37 W/m2 FEW
16:50 83.7 °F /  28.7 °C 53.1 °F /  11.7 °C 30.11 in /  1019.5 hPa Calm   1.0 mph /  1.6 km/h 35 % 0.00 in /  0 mm WeatherDisplay:10.37 W/m2 FEW
16:55 83.6 °F /  28.7 °C 52.3 °F /  11.3 °C 30.12 in /  1019.9 hPa Calm   1.0 mph /  1.6 km/h 34 % 0.00 in /  0 mm WeatherDisplay:10.37 W/m2 FEW
17:00 83.6 °F /  28.7 °C 54.6 °F /  12.6 °C 30.11 in /  1019.5 hPa Calm   2.0 mph /  3.2 km/h 37 % 0.00 in /  0 mm WeatherDisplay:10.37 W/m2 FEW
17:05 83.7 °F /  28.7 °C 54.7 °F /  12.6 °C 30.11 in /  1019.5 hPa Calm     37 % 0.00 in /  0 mm WeatherDisplay:10.37 W/m2 FEW
17:10 83.7 °F /  28.7 °C 53.9 °F /  12.2 °C 30.11 in /  1019.5 hPa Calm   1.0 mph /  1.6 km/h 36 % 0.00 in /  0 mm WeatherDisplay:10.37 W/m2 FEW
17:15 83.7 °F /  28.7 °C 53.9 °F /  12.2 °C 30.11 in /  1019.5 hPa Calm   1.0 mph /  1.6 km/h 36 % 0.00 in /  0 mm WeatherDisplay:10.37 W/m2 FEW
17:20 83.8 °F /  28.8 °C 53.2 °F /  11.8 °C 30.12 in /  1019.9 hPa Calm     35 % 0.00 in /  0 mm WeatherDisplay:10.37 W/m2 FEW
17:25 83.8 °F /  28.8 °C 54.0 °F /  12.2 °C 30.11 in /  1019.5 hPa Calm     36 % 0.00 in /  0 mm WeatherDisplay:10.37 W/m2 FEW
17:30 83.8 °F /  28.8 °C 52.4 °F /  11.3 °C 30.11 in /  1019.5 hPa Calm   1.0 mph /  1.6 km/h 34 % 0.00 in /  0 mm WeatherDisplay:10.37 W/m2 FEW
17:35 83.9 °F /  28.8 °C 53.3 °F /  11.8 °C 30.11 in /  1019.5 hPa Calm     35 % 0.00 in /  0 mm WeatherDisplay:10.37 W/m2 FEW
17:40 84.1 °F /  28.9 °C 54.3 °F /  12.4 °C 30.11 in /  1019.5 hPa Calm     36 % 0.00 in /  0 mm WeatherDisplay:10.37 W/m2 FEW
17:45 84.2 °F /  29 °C 54.4 °F /  12.4 °C 30.11 in /  1019.5 hPa Calm     36 % 0.00 in /  0 mm WeatherDisplay:10.37 W/m2 FEW
17:50 84.3 °F /  29.1 °C 53.7 °F /  12.1 °C 30.11 in /  1019.5 hPa Calm     35 % 0.00 in /  0 mm WeatherDisplay:10.37 W/m2 FEW
17:55 84.4 °F /  29.1 °C 53.8 °F /  12.1 °C 30.12 in /  1019.9 hPa Calm   3.0 mph /  4.8 km/h 35 % 0.00 in /  0 mm WeatherDisplay:10.37 W/m2 FEW
18:00 84.3 °F /  29.1 °C 55.2 °F /  12.9 °C 30.12 in /  1019.9 hPa Calm   2.0 mph /  3.2 km/h 37 % 0.00 in /  0 mm WeatherDisplay:10.37 W/m2 FEW
18:05 84.0 °F /  28.9 °C 54.9 °F /  12.7 °C 30.12 in /  1019.9 hPa Calm   1.0 mph /  1.6 km/h 37 % 0.00 in /  0 mm WeatherDisplay:10.37 W/m2 FEW
18:10 83.7 °F /  28.7 °C 54.6 °F /  12.6 °C 30.12 in /  1019.9 hPa Calm     37 % 0.00 in /  0 mm WeatherDisplay:10.37 W/m2 FEW
18:15 83.4 °F /  28.6 °C 55.1 °F /  12.8 °C 30.12 in /  1019.9 hPa Calm     38 % 0.00 in /  0 mm WeatherDisplay:10.37 W/m2 FEW
18:20 83.1 °F /  28.4 °C 54.9 °F /  12.7 °C 30.12 in /  1019.9 hPa Calm     38 % 0.00 in /  0 mm WeatherDisplay:10.37 W/m2 FEW
18:25 82.8 °F /  28.2 °C 54.6 °F /  12.6 °C 30.12 in /  1019.9 hPa Calm     38 % 0.00 in /  0 mm WeatherDisplay:10.37 W/m2 FEW
18:30 82.4 °F /  28 °C 54.3 °F /  12.4 °C 30.12 in /  1019.9 hPa Calm   1.0 mph /  1.6 km/h 38 % 0.00 in /  0 mm WeatherDisplay:10.37 W/m2 FEW
18:35 82.2 °F /  27.9 °C 55.5 °F /  13.1 °C 30.12 in /  1019.9 hPa Calm   2.0 mph /  3.2 km/h 40 % 0.00 in /  0 mm WeatherDisplay:10.37 W/m2 FEW
18:40 82.0 °F /  27.8 °C 55.3 °F /  12.9 °C 30.12 in /  1019.9 hPa Calm   1.0 mph /  1.6 km/h 40 % 0.00 in /  0 mm WeatherDisplay:10.37 W/m2 FEW
18:45 81.9 °F /  27.7 °C 55.2 °F /  12.9 °C 30.13 in /  1020.2 hPa Calm     40 % 0.00 in /  0 mm WeatherDisplay:10.37 W/m2 FEW
18:50 81.8 °F /  27.7 °C 55.8 °F /  13.2 °C 30.13 in /  1020.2 hPa Calm     41 % 0.00 in /  0 mm WeatherDisplay:10.37 W/m2 FEW
18:55 81.7 °F /  27.6 °C 55.7 °F /  13.2 °C 30.13 in /  1020.2 hPa Calm     41 % 0.00 in /  0 mm WeatherDisplay:10.37 W/m2 FEW
19:00 81.6 °F /  27.6 °C 54.9 °F /  12.7 °C 30.13 in /  1020.2 hPa Calm     40 % 0.00 in /  0 mm WeatherDisplay:10.37 W/m2 FEW
19:05 81.5 °F /  27.5 °C 55.5 °F /  13.1 °C 30.13 in /  1020.2 hPa Calm     41 % 0.00 in /  0 mm WeatherDisplay:10.37 W/m2 FEW
19:10 81.3 °F /  27.4 °C 56.0 °F /  13.3 °C 30.14 in /  1020.5 hPa Calm   3.0 mph /  4.8 km/h 42 % 0.00 in /  0 mm WeatherDisplay:10.37 W/m2 FEW
19:15 81.0 °F /  27.2 °C 57.0 °F /  13.9 °C 30.14 in /  1020.5 hPa Calm   1.0 mph /  1.6 km/h 44 % 0.00 in /  0 mm WeatherDisplay:10.37 W/m2 FEW
19:20 80.9 °F /  27.2 °C 56.9 °F /  13.8 °C 30.14 in /  1020.5 hPa Calm     44 % 0.00 in /  0 mm WeatherDisplay:10.37 W/m2 FEW
19:25 80.7 °F /  27.1 °C 57.4 °F /  14.1 °C 30.14 in /  1020.5 hPa Calm   2.0 mph /  3.2 km/h 45 % 0.00 in /  0 mm WeatherDisplay:10.37 W/m2 FEW
19:30 80.5 °F /  26.9 °C 57.8 °F /  14.3 °C 30.14 in /  1020.5 hPa Calm   1.0 mph /  1.6 km/h 46 % 0.00 in /  0 mm WeatherDisplay:10.37 W/m2 FEW
19:35 80.2 °F /  26.8 °C 57.6 °F /  14.2 °C 30.14 in /  1020.5 hPa Calm   1.0 mph /  1.6 km/h 46 % 0.00 in /  0 mm WeatherDisplay:10.37 W/m2 FEW
19:40 80.0 °F /  26.7 °C 57.4 °F /  14.1 °C 30.14 in /  1020.5 hPa Calm   1.0 mph /  1.6 km/h 46 % 0.00 in /  0 mm WeatherDisplay:10.37 W/m2 FEW
19:45 79.9 °F /  26.6 °C 57.3 °F /  14.1 °C 30.14 in /  1020.5 hPa Calm     46 % 0.00 in /  0 mm WeatherDisplay:10.37 W/m2 FEW
19:50 79.8 °F /  26.6 °C 57.8 °F /  14.3 °C 30.14 in /  1020.5 hPa Calm     47 % 0.00 in /  0 mm WeatherDisplay:10.37 W/m2 FEW
19:55 79.6 °F /  26.4 °C 58.2 °F /  14.6 °C 30.14 in /  1020.5 hPa Calm     48 % 0.00 in /  0 mm WeatherDisplay:10.37 W/m2 FEW
20:00 79.3 °F /  26.3 °C 57.4 °F /  14.1 °C 30.15 in /  1020.9 hPa Calm     47 % 0.00 in /  0 mm WeatherDisplay:10.37 W/m2 FEW
20:05 79.1 °F /  26.2 °C 57.7 °F /  14.3 °C 30.15 in /  1020.9 hPa Calm     48 % 0.00 in /  0 mm WeatherDisplay:10.37 W/m2 FEW
20:10 78.9 °F /  26.1 °C 57.5 °F /  14.2 °C 30.15 in /  1020.9 hPa Calm     48 % 0.00 in /  0 mm WeatherDisplay:10.37 W/m2 FEW
20:15 78.5 °F /  25.8 °C 57.8 °F /  14.3 °C 30.15 in /  1020.9 hPa Calm     49 % 0.00 in /  0 mm WeatherDisplay:10.37 W/m2 FEW
20:20 78.0 °F /  25.6 °C 59.0 °F /  15 °C 30.15 in /  1020.9 hPa Calm     52 % 0.00 in /  0 mm WeatherDisplay:10.37 W/m2 FEW
20:25 77.5 °F /  25.3 °C 58.5 °F /  14.7 °C 30.15 in /  1020.9 hPa Calm     52 % 0.00 in /  0 mm WeatherDisplay:10.37 W/m2 FEW
20:30 76.9 °F /  24.9 °C 58.5 °F /  14.7 °C 30.15 in /  1020.9 hPa Calm     53 % 0.00 in /  0 mm WeatherDisplay:10.37 W/m2 FEW
20:35 76.3 °F /  24.6 °C 58.5 °F /  14.7 °C 30.15 in /  1020.9 hPa Calm     54 % 0.00 in /  0 mm WeatherDisplay:10.37 W/m2 FEW
20:40 75.7 °F /  24.3 °C 58.4 °F /  14.7 °C 30.15 in /  1020.9 hPa Calm     55 % 0.00 in /  0 mm WeatherDisplay:10.37 W/m2 FEW
20:45 75.1 °F /  23.9 °C 58.4 °F /  14.7 °C 30.15 in /  1020.9 hPa Calm     56 % 0.00 in /  0 mm WeatherDisplay:10.37 W/m2 FEW
20:50 74.5 °F /  23.6 °C 58.3 °F /  14.6 °C 30.15 in /  1020.9 hPa Calm     57 % 0.00 in /  0 mm WeatherDisplay:10.37 W/m2 FEW
20:55 74.0 °F /  23.3 °C 58.8 °F /  14.9 °C 30.15 in /  1020.9 hPa Calm     59 % 0.00 in /  0 mm WeatherDisplay:10.37 W/m2 FEW
21:00 73.5 °F /  23.1 °C 58.8 °F /  14.9 °C 30.15 in /  1020.9 hPa Calm     60 % 0.00 in /  0 mm WeatherDisplay:10.37 W/m2 FEW
21:05 73.1 °F /  22.8 °C 58.4 °F /  14.7 °C 30.15 in /  1020.9 hPa Calm     60 % 0.00 in /  0 mm WeatherDisplay:10.37 W/m2 FEW
21:10 72.7 °F /  22.6 °C 58.5 °F /  14.7 °C 30.15 in /  1020.9 hPa Calm     61 % 0.00 in /  0 mm WeatherDisplay:10.37 W/m2 FEW
21:15 72.2 °F /  22.3 °C 58.4 °F /  14.7 °C 30.16 in /  1021.2 hPa Calm     62 % 0.00 in /  0 mm WeatherDisplay:10.37 W/m2 FEW
21:20 71.6 °F /  22 °C 58.4 °F /  14.7 °C 30.16 in /  1021.2 hPa Calm     63 % 0.00 in /  0 mm WeatherDisplay:10.37 W/m2 FEW
21:25 71.0 °F /  21.7 °C 58.2 °F /  14.6 °C 30.16 in /  1021.2 hPa Calm     64 % 0.00 in /  0 mm WeatherDisplay:10.37 W/m2 FEW
21:30 70.5 °F /  21.4 °C 58.2 °F /  14.6 °C 30.16 in /  1021.2 hPa Calm     65 % 0.00 in /  0 mm WeatherDisplay:10.37 W/m2 FEW
21:35 70.3 °F /  21.3 °C 57.9 °F /  14.4 °C 30.16 in /  1021.2 hPa Calm     65 % 0.00 in /  0 mm WeatherDisplay:10.37 W/m2 FEW
21:40 70.0 °F /  21.1 °C 57.7 °F /  14.3 °C 30.16 in /  1021.2 hPa Calm     65 % 0.00 in /  0 mm WeatherDisplay:10.37 W/m2 FEW
21:45 69.6 °F /  20.9 °C 58.1 °F /  14.5 °C 30.16 in /  1021.2 hPa Calm     67 % 0.00 in /  0 mm WeatherDisplay:10.37 W/m2 FEW
21:50 69.3 °F /  20.7 °C 57.9 °F /  14.4 °C 30.17 in /  1021.6 hPa Calm     67 % 0.00 in /  0 mm WeatherDisplay:10.37 W/m2 FEW
21:55 69.0 °F /  20.6 °C 58.4 °F /  14.7 °C 30.16 in /  1021.2 hPa Calm     69 % 0.00 in /  0 mm WeatherDisplay:10.37 W/m2 FEW
22:00 68.6 °F /  20.3 °C 58.5 °F /  14.7 °C 30.17 in /  1021.6 hPa Calm     70 % 0.00 in /  0 mm WeatherDisplay:10.37 W/m2 FEW
22:05 68.4 °F /  20.2 °C 58.2 °F /  14.6 °C 30.17 in /  1021.6 hPa Calm     70 % 0.00 in /  0 mm WeatherDisplay:10.37 W/m2 FEW
22:10 68.2 °F /  20.1 °C 58.0 °F /  14.4 °C 30.17 in /  1021.6 hPa Calm     70 % 0.00 in /  0 mm WeatherDisplay:10.37 W/m2 FEW
22:15 67.9 °F /  19.9 °C 58.1 °F /  14.5 °C 30.17 in /  1021.6 hPa Calm     71 % 0.00 in /  0 mm WeatherDisplay:10.37 W/m2 FEW
22:20 67.6 °F /  19.8 °C 58.3 °F /  14.6 °C 30.17 in /  1021.6 hPa Calm     72 % 0.00 in /  0 mm WeatherDisplay:10.37 W/m2 FEW
22:25 67.3 °F /  19.6 °C 58.3 °F /  14.6 °C 30.17 in /  1021.6 hPa Calm     73 % 0.00 in /  0 mm WeatherDisplay:10.37 W/m2 FEW
22:30 67.0 °F /  19.4 °C 58.4 °F /  14.7 °C 30.17 in /  1021.6 hPa Calm     74 % 0.00 in /  0 mm WeatherDisplay:10.37 W/m2 FEW
22:35 66.8 °F /  19.3 °C 58.2 °F /  14.6 °C 30.17 in /  1021.6 hPa Calm     74 % 0.00 in /  0 mm WeatherDisplay:10.37 W/m2 FEW
22:40 66.5 °F /  19.2 °C 58.0 °F /  14.4 °C 30.17 in /  1021.6 hPa Calm     74 % 0.00 in /  0 mm WeatherDisplay:10.37 W/m2 FEW
22:45 66.3 °F /  19.1 °C 58.1 °F /  14.5 °C 30.17 in /  1021.6 hPa Calm     75 % 0.00 in /  0 mm WeatherDisplay:10.37 W/m2 FEW
22:50 66.1 °F /  18.9 °C 58.3 °F /  14.6 °C 30.18 in /  1021.9 hPa Calm     76 % 0.00 in /  0 mm WeatherDisplay:10.37 W/m2 FEW
22:55 65.8 °F /  18.8 °C 58.0 °F /  14.4 °C 30.18 in /  1021.9 hPa Calm     76 % 0.00 in /  0 mm WeatherDisplay:10.37 W/m2 FEW
23:00 65.6 °F /  18.7 °C 57.8 °F /  14.3 °C 30.18 in /  1021.9 hPa Calm     76 % 0.00 in /  0 mm WeatherDisplay:10.37 W/m2 FEW
23:05 65.3 °F /  18.5 °C 57.9 °F /  14.4 °C 30.18 in /  1021.9 hPa Calm     77 % 0.00 in /  0 mm WeatherDisplay:10.37 W/m2 FEW
23:10 65.1 °F /  18.4 °C 58.1 °F /  14.5 °C 30.18 in /  1021.9 hPa Calm     78 % 0.00 in /  0 mm WeatherDisplay:10.37 W/m2 FEW
23:15 64.9 °F /  18.3 °C 58.2 °F /  14.6 °C 30.17 in /  1021.6 hPa Calm     79 % 0.00 in /  0 mm WeatherDisplay:10.37 W/m2 FEW
23:20 64.7 °F /  18.2 °C 58.0 °F /  14.4 °C 30.17 in /  1021.6 hPa Calm     79 % 0.00 in /  0 mm WeatherDisplay:10.37 W/m2 FEW
23:25 64.5 °F /  18.1 °C 57.8 °F /  14.3 °C 30.17 in /  1021.6 hPa Calm     79 % 0.00 in /  0 mm WeatherDisplay:10.37 W/m2 FEW
23:30 64.3 °F /  17.9 °C 57.6 °F /  14.2 °C 30.17 in /  1021.6 hPa Calm     79 % 0.00 in /  0 mm WeatherDisplay:10.37 W/m2 FEW
23:35 64.1 °F /  17.8 °C 57.5 °F /  14.2 °C 30.17 in /  1021.6 hPa Calm     79 % 0.00 in /  0 mm WeatherDisplay:10.37 W/m2 FEW
23:40 63.9 °F /  17.7 °C 57.6 °F /  14.2 °C 30.17 in /  1021.6 hPa Calm     80 % 0.00 in /  0 mm WeatherDisplay:10.37 W/m2 FEW
23:45 63.7 °F /  17.6 °C 57.4 °F /  14.1 °C 30.17 in /  1021.6 hPa Calm     80 % 0.00 in /  0 mm WeatherDisplay:10.37 W/m2 FEW
23:50 63.5 °F /  17.5 °C 57.2 °F /  14 °C 30.17 in /  1021.6 hPa Calm     80 % 0.00 in /  0 mm WeatherDisplay:10.37 W/m2 FEW
23:55 63.3 °F /  17.4 °C 57.1 °F /  13.9 °C 30.17 in /  1021.6 hPa Calm     80 % 0.00 in /  0 mm WeatherDisplay:10.37 W/m2 FEW
Juneau County Weather
Compliments of Weather Underground - 3 mb